createdAt,value
2022-07-29T00:01:46.019Z,55.80
2022-07-29T00:04:15.114Z,55.80
2022-07-29T00:06:45.463Z,56.13
2022-07-29T00:09:14.904Z,56.04
2022-07-29T00:11:44.646Z,55.56
2022-07-29T00:14:13.881Z,56.17
2022-07-29T00:16:44.155Z,55.95
2022-07-29T00:19:15.128Z,56.07
2022-07-29T00:21:43.625Z,55.91
2022-07-29T00:24:13.810Z,56.03
2022-07-29T00:26:42.475Z,56.31
2022-07-29T00:29:33.615Z,55.96
2022-07-29T00:32:01.590Z,56.15
2022-07-29T00:34:51.722Z,56.20
2022-07-29T00:37:20.350Z,55.59
2022-07-29T00:39:48.723Z,56.03
2022-07-29T00:42:20.088Z,56.39
2022-07-29T00:44:51.543Z,56.28
2022-07-29T00:47:21.153Z,56.26
2022-07-29T00:49:50.775Z,56.53
2022-07-29T00:52:19.529Z,56.58
2022-07-29T00:54:48.676Z,56.82
2022-07-29T00:57:19.172Z,56.78
2022-07-29T00:59:47.413Z,57.18
2022-07-29T01:02:16.174Z,57.65
2022-07-29T01:04:47.474Z,57.10
2022-07-29T01:07:22.342Z,57.53
2022-07-29T01:09:54.126Z,57.67
2022-07-29T01:12:27.279Z,57.86
2022-07-29T01:15:01.113Z,59.06
2022-07-29T01:17:34.564Z,58.58
2022-07-29T01:20:12.442Z,58.53
2022-07-29T01:22:56.594Z,58.95
2022-07-29T01:25:53.158Z,59.26
2022-07-29T01:28:56.069Z,59.41
2022-07-29T01:31:30.884Z,59.73
2022-07-29T01:34:06.035Z,60.13
2022-07-29T01:36:37.763Z,59.86
2022-07-29T01:39:10.503Z,60.09
2022-07-29T01:41:42.456Z,59.64
2022-07-29T01:44:20.361Z,59.73
2022-07-29T01:46:56.096Z,59.22
2022-07-29T01:49:33.384Z,59.24
2022-07-29T01:52:07.693Z,59.20
2022-07-29T01:54:40.728Z,59.14
2022-07-29T01:57:13.521Z,59.62
2022-07-29T01:59:52.058Z,60.12
2022-07-29T02:02:22.770Z,60.32
2022-07-29T02:04:54.730Z,60.32
2022-07-29T02:07:26.362Z,60.55
2022-07-29T02:09:55.921Z,60.41
2022-07-29T02:12:28.877Z,61.22
2022-07-29T02:15:04.068Z,61.24
2022-07-29T02:17:39.896Z,61.12
2022-07-29T02:20:12.246Z,61.88
2022-07-29T02:22:41.894Z,61.88
2022-07-29T02:25:13.827Z,61.91
2022-07-29T02:27:47.111Z,61.86
2022-07-29T02:30:21.229Z,62.42
2022-07-29T02:32:51.921Z,63.15
2022-07-29T02:35:22.266Z,63.44
2022-07-29T02:38:12.539Z,63.82
2022-07-29T02:40:44.183Z,63.99
2022-07-29T02:43:13.831Z,64.37
2022-07-29T02:45:46.319Z,64.53
2022-07-29T02:48:25.399Z,64.80
2022-07-29T02:51:00.868Z,65.09
2022-07-29T02:53:31.190Z,65.40
2022-07-29T02:56:04.824Z,65.52
2022-07-29T02:58:37.177Z,65.95
2022-07-29T03:01:16.832Z,65.78
2022-07-29T03:03:54.005Z,66.06
2022-07-29T03:06:37.926Z,66.17
2022-07-29T03:09:13.252Z,66.58
2022-07-29T03:11:50.004Z,66.72
2022-07-29T03:14:21.638Z,66.81
2022-07-29T03:16:53.159Z,67.23
2022-07-29T03:19:23.720Z,67.22
2022-07-29T03:21:53.870Z,67.42
2022-07-29T03:24:30.530Z,67.68
2022-07-29T03:27:01.278Z,67.56
2022-07-29T03:29:34.559Z,67.66
2022-07-29T03:32:08.616Z,67.95
2022-07-29T03:34:41.171Z,68.40
2022-07-29T03:37:10.340Z,67.98
2022-07-29T03:39:43.743Z,67.81
2022-07-29T03:42:18.372Z,67.91
2022-07-29T03:44:49.631Z,67.82
2022-07-29T03:47:27.025Z,68.31
2022-07-29T03:50:14.621Z,68.32
2022-07-29T03:52:45.294Z,67.49
2022-07-29T03:55:16.627Z,67.56
2022-07-29T03:57:47.595Z,68.01
2022-07-29T04:00:21.075Z,67.61
2022-07-29T04:02:52.381Z,67.22
2022-07-29T04:05:22.491Z,66.63
2022-07-29T04:07:52.966Z,66.88
2022-07-29T04:10:30.164Z,66.95
2022-07-29T04:13:02.276Z,66.54
2022-07-29T04:15:34.039Z,66.52
2022-07-29T04:18:07.300Z,67.62
2022-07-29T04:20:36.192Z,66.58
2022-07-29T04:23:07.588Z,66.35
2022-07-29T04:25:38.677Z,66.50
2022-07-29T04:28:07.690Z,66.18
2022-07-29T04:30:37.204Z,66.42
2022-07-29T04:33:10.003Z,66.81
2022-07-29T04:35:50.045Z,65.55
2022-07-29T04:38:23.296Z,65.74
2022-07-29T04:40:53.702Z,65.02
2022-07-29T04:43:25.552Z,65.47
2022-07-29T04:45:57.072Z,65.17
2022-07-29T04:48:32.743Z,65.49
2022-07-29T04:51:01.620Z,65.29
2022-07-29T04:53:32.364Z,64.64
2022-07-29T04:56:01.358Z,64.61
2022-07-29T04:58:31.774Z,64.61
2022-07-29T05:01:03.085Z,65.58
2022-07-29T05:03:35.565Z,64.81
2022-07-29T05:06:07.217Z,65.30
2022-07-29T05:08:35.133Z,64.11
2022-07-29T05:11:12.001Z,63.79
2022-07-29T05:13:45.263Z,63.61
2022-07-29T05:16:15.669Z,62.70
2022-07-29T05:18:48.007Z,63.27
2022-07-29T05:21:19.016Z,63.17
2022-07-29T05:23:47.498Z,62.88
2022-07-29T05:26:16.826Z,62.74
2022-07-29T05:28:49.232Z,62.09
2022-07-29T05:31:19.958Z,61.88
2022-07-29T05:33:50.811Z,61.60
2022-07-29T05:36:20.607Z,60.29
2022-07-29T05:38:49.451Z,59.02
2022-07-29T05:41:17.628Z,58.85
2022-07-29T05:43:46.222Z,57.55
2022-07-29T05:46:16.909Z,58.87
2022-07-29T05:48:48.950Z,56.96
2022-07-29T05:51:19.512Z,59.33
2022-07-29T05:53:48.646Z,55.00
2022-07-29T05:56:18.114Z,57.44
2022-07-29T05:58:49.178Z,55.29
2022-07-29T06:01:19.582Z,56.00
2022-07-29T06:03:48.066Z,54.35
2022-07-29T06:06:18.790Z,53.39
2022-07-29T06:08:51.009Z,53.03
2022-07-29T06:11:22.649Z,53.12
2022-07-29T06:13:53.163Z,54.09
2022-07-29T06:16:30.027Z,53.33
2022-07-29T06:19:00.805Z,53.02
2022-07-29T06:21:30.092Z,53.85
2022-07-29T06:24:01.129Z,53.64
2022-07-29T06:26:32.581Z,53.60
2022-07-29T06:29:04.629Z,52.92
2022-07-29T06:31:32.947Z,52.81
2022-07-29T06:34:05.665Z,52.48
2022-07-29T06:36:38.001Z,51.75
2022-07-29T06:39:13.112Z,52.20
2022-07-29T06:41:45.553Z,52.20
2022-07-29T06:44:18.199Z,53.16
2022-07-29T06:46:50.788Z,52.98
2022-07-29T06:49:20.861Z,53.08
2022-07-29T06:51:49.961Z,51.99
2022-07-29T06:54:22.869Z,52.33
2022-07-29T06:56:53.213Z,52.07
2022-07-29T06:59:30.981Z,51.84
2022-07-29T07:02:04.952Z,51.72
2022-07-29T07:04:34.634Z,52.30
2022-07-29T07:07:03.829Z,51.60
2022-07-29T07:09:40.414Z,52.01
2022-07-29T07:12:10.013Z,51.04
2022-07-29T07:14:39.202Z,51.83
2022-07-29T07:17:09.206Z,50.29
2022-07-29T07:19:38.092Z,50.48
2022-07-29T07:22:08.588Z,49.72
2022-07-29T07:24:38.919Z,50.01
2022-07-29T07:27:07.756Z,50.28
2022-07-29T07:29:36.491Z,50.16
2022-07-29T07:32:05.217Z,51.18
2022-07-29T07:34:34.336Z,49.09
2022-07-29T07:37:05.506Z,48.98
2022-07-29T07:39:33.817Z,49.75
2022-07-29T07:42:03.763Z,48.83
2022-07-29T07:44:46.273Z,49.00
2022-07-29T07:47:24.706Z,50.11
2022-07-29T07:49:57.619Z,49.22
2022-07-29T07:52:29.619Z,48.39
2022-07-29T07:54:57.849Z,47.62
2022-07-29T07:57:28.694Z,47.06
2022-07-29T07:59:57.408Z,47.45
2022-07-29T08:02:26.300Z,46.84
2022-07-29T08:04:54.904Z,47.64
2022-07-29T08:07:24.023Z,46.04
2022-07-29T08:09:52.155Z,45.61
2022-07-29T08:12:21.871Z,46.01
2022-07-29T08:14:52.159Z,47.12
2022-07-29T08:17:22.452Z,45.65
2022-07-29T08:19:53.418Z,45.98
2022-07-29T08:22:21.592Z,45.10
2022-07-29T08:24:55.685Z,44.49
2022-07-29T08:30:14.235Z,45.23
2022-07-29T08:32:57.951Z,45.73
2022-07-29T08:35:33.358Z,44.22
2022-07-29T08:38:04.461Z,44.07
2022-07-29T08:40:32.986Z,44.10
2022-07-29T08:43:06.751Z,44.18
2022-07-29T08:45:47.386Z,44.58
2022-07-29T08:48:17.814Z,44.51
2022-07-29T08:50:47.342Z,44.03
2022-07-29T08:53:17.176Z,42.98
2022-07-29T08:55:50.640Z,42.19
2022-07-29T08:58:23.368Z,40.20
2022-07-29T09:00:56.781Z,39.48
2022-07-29T09:03:27.869Z,40.78
2022-07-29T09:05:57.449Z,38.05
2022-07-29T09:08:26.112Z,37.28
2022-07-29T09:10:54.782Z,39.27
2022-07-29T09:13:23.177Z,37.55
2022-07-29T09:15:51.285Z,37.77
2022-07-29T09:21:32.186Z,37.87
2022-07-29T09:24:07.763Z,36.15
2022-07-29T09:26:38.537Z,36.26
2022-07-29T09:29:12.084Z,36.30
2022-07-29T09:31:41.997Z,36.31
2022-07-29T09:34:11.362Z,36.70
2022-07-29T09:36:43.436Z,36.37
2022-07-29T09:39:12.624Z,36.07
2022-07-29T09:41:49.888Z,33.84
2022-07-29T09:44:18.520Z,34.70
2022-07-29T09:47:07.006Z,33.99
2022-07-29T09:49:36.339Z,34.79
2022-07-29T09:52:10.836Z,34.25
2022-07-29T09:54:39.616Z,33.39
2022-07-29T09:57:10.789Z,33.61
2022-07-29T09:59:50.562Z,32.69
2022-07-29T10:02:23.732Z,33.01
2022-07-29T10:04:53.467Z,30.38
2022-07-29T10:07:23.506Z,32.27
2022-07-29T10:09:55.802Z,32.19
2022-07-29T10:12:25.003Z,32.42
2022-07-29T10:14:54.194Z,33.43
2022-07-29T10:17:24.041Z,33.34
2022-07-29T10:19:52.671Z,34.10
2022-07-29T10:22:50.440Z,34.03
2022-07-29T10:25:11.879Z,35.19
2022-07-29T10:27:41.063Z,36.00
2022-07-29T10:30:11.175Z,34.27
2022-07-29T10:32:54.320Z,33.85
2022-07-29T10:35:34.788Z,34.39
2022-07-29T10:38:35.743Z,32.57
2022-07-29T10:41:32.460Z,32.02
2022-07-29T10:44:22.896Z,31.82
2022-07-29T10:46:58.172Z,32.23
2022-07-29T10:49:30.764Z,30.56
2022-07-29T10:52:02.169Z,30.95
2022-07-29T10:55:01.691Z,31.91
2022-07-29T10:57:53.751Z,32.86
2022-07-29T11:00:30.390Z,32.62
2022-07-29T11:02:59.492Z,31.36
2022-07-29T11:05:32.079Z,31.39
2022-07-29T11:08:26.277Z,31.61
2022-07-29T11:11:39.544Z,31.56
2022-07-29T11:14:13.245Z,32.27
2022-07-29T11:17:06.129Z,32.57
2022-07-29T11:22:34.916Z,32.80
2022-07-29T11:25:17.116Z,31.82
2022-07-29T11:27:47.661Z,31.31
2022-07-29T11:30:16.355Z,31.02
2022-07-29T11:32:50.040Z,31.84
2022-07-29T11:35:37.696Z,31.45
2022-07-29T11:38:28.967Z,28.38
2022-07-29T11:41:27.358Z,28.70
2022-07-29T11:44:01.276Z,28.61
2022-07-29T11:46:47.768Z,29.31
2022-07-29T11:49:21.954Z,30.05
2022-07-29T11:52:03.347Z,28.76
2022-07-29T11:54:38.736Z,28.41
2022-07-29T11:57:29.541Z,27.52
2022-07-29T12:00:12.143Z,28.50
2022-07-29T12:02:43.291Z,27.93
2022-07-29T12:05:12.988Z,27.86
2022-07-29T12:07:45.530Z,28.06
2022-07-29T12:10:30.073Z,28.12
2022-07-29T12:12:58.909Z,26.91
2022-07-29T12:15:46.117Z,27.10
2022-07-29T12:18:23.805Z,28.33
2022-07-29T12:21:03.391Z,29.75
2022-07-29T12:23:34.676Z,28.36
2022-07-29T12:26:07.646Z,28.16
2022-07-29T12:28:41.027Z,27.56
2022-07-29T12:31:43.493Z,26.85
2022-07-29T12:34:05.263Z,27.96
2022-07-29T12:36:34.421Z,27.79
2022-07-29T12:39:03.658Z,27.39
2022-07-29T12:41:33.265Z,26.77
2022-07-29T12:44:01.950Z,26.56
2022-07-29T12:46:33.135Z,27.26
2022-07-29T12:49:04.392Z,26.09
2022-07-29T12:51:34.945Z,25.34
2022-07-29T12:54:09.814Z,26.93
2022-07-29T12:56:44.552Z,25.09
2022-07-29T12:59:16.625Z,27.40
2022-07-29T13:01:49.633Z,27.40
2022-07-29T13:04:28.110Z,27.82
2022-07-29T13:07:04.889Z,28.42
2022-07-29T13:09:42.108Z,28.81
2022-07-29T13:12:12.897Z,28.68
2022-07-29T13:14:43.418Z,29.24
2022-07-29T13:17:15.773Z,29.82
2022-07-29T13:19:46.525Z,29.31
2022-07-29T13:22:18.646Z,28.65
2022-07-29T13:24:54.201Z,29.03
2022-07-29T13:27:25.171Z,28.49
2022-07-29T13:29:56.114Z,28.30
2022-07-29T13:32:27.764Z,29.11
2022-07-29T13:34:56.966Z,29.89
2022-07-29T13:37:26.856Z,29.81
2022-07-29T13:39:57.029Z,30.34
2022-07-29T13:42:25.861Z,29.57
2022-07-29T13:44:55.283Z,29.31
2022-07-29T13:47:32.151Z,30.63
2022-07-29T13:50:02.233Z,31.57
2022-07-29T13:52:30.933Z,30.32
2022-07-29T13:54:59.286Z,30.47
2022-07-29T13:57:28.082Z,30.56
2022-07-29T13:59:56.285Z,31.00
2022-07-29T14:02:26.475Z,29.88
2022-07-29T14:04:55.987Z,30.00
2022-07-29T14:07:25.292Z,30.09
2022-07-29T14:09:53.919Z,30.50
2022-07-29T14:12:22.384Z,30.75
2022-07-29T14:14:51.386Z,29.27
2022-07-29T14:17:22.918Z,29.57
2022-07-29T14:19:53.834Z,29.60
2022-07-29T14:22:25.540Z,29.07
2022-07-29T14:24:57.322Z,29.86
2022-07-29T14:27:37.720Z,30.28
2022-07-29T14:30:08.413Z,30.39
2022-07-29T14:32:39.406Z,29.58
2022-07-29T14:35:10.165Z,29.83
2022-07-29T14:37:40.589Z,29.66
2022-07-29T14:40:11.427Z,30.01
2022-07-29T14:42:41.023Z,31.05
2022-07-29T14:45:13.586Z,29.39
2022-07-29T14:47:43.006Z,29.96
2022-07-29T14:50:15.987Z,30.35
2022-07-29T14:52:48.786Z,30.29
2022-07-29T14:55:20.003Z,30.63
2022-07-29T14:57:51.213Z,32.14
2022-07-29T15:00:24.402Z,31.21
2022-07-29T15:03:02.047Z,31.21
2022-07-29T15:05:33.151Z,31.40
2022-07-29T15:08:01.868Z,31.83
2022-07-29T15:10:30.111Z,33.41
2022-07-29T15:12:58.924Z,31.43
2022-07-29T15:15:27.449Z,31.85
2022-07-29T15:17:55.698Z,31.95
2022-07-29T15:20:26.236Z,31.90
2022-07-29T15:27:04.820Z,31.71
2022-07-29T15:30:31.472Z,30.91
2022-07-29T15:38:12.932Z,31.37
2022-07-29T15:41:42.834Z,31.87
2022-07-29T15:44:11.243Z,32.70
2022-07-29T15:46:57.216Z,30.74
2022-07-29T15:49:48.819Z,30.56
2022-07-29T15:53:14.513Z,30.94
2022-07-29T15:55:43.312Z,31.06
2022-07-29T15:58:14.723Z,30.71
2022-07-29T16:00:44.910Z,30.94
2022-07-29T16:03:16.276Z,30.25
2022-07-29T16:05:47.922Z,30.34
2022-07-29T16:08:17.907Z,31.02
2022-07-29T16:10:46.086Z,31.06
2022-07-29T16:13:19.080Z,31.75
2022-07-29T16:16:02.083Z,32.32
2022-07-29T16:18:31.691Z,31.28
2022-07-29T16:20:59.899Z,32.01
2022-07-29T16:23:29.317Z,30.95
2022-07-29T16:26:00.226Z,32.51
2022-07-29T16:28:31.405Z,32.31
2022-07-29T16:31:04.186Z,31.44
2022-07-29T16:33:55.585Z,32.39
2022-07-29T16:36:22.885Z,33.62
2022-07-29T16:38:51.341Z,31.92
2022-07-29T16:41:23.849Z,34.64
2022-07-29T16:43:56.462Z,33.40
2022-07-29T16:46:26.592Z,34.20
2022-07-29T16:48:55.737Z,34.05
2022-07-29T16:51:24.388Z,34.88
2022-07-29T16:53:55.482Z,34.21
2022-07-29T16:56:24.061Z,33.21
2022-07-29T16:58:54.064Z,33.71
2022-07-29T17:01:23.570Z,33.21
2022-07-29T17:04:09.682Z,34.73
2022-07-29T17:06:41.677Z,33.87
2022-07-29T17:09:11.787Z,34.38
2022-07-29T17:11:51.871Z,34.49
2022-07-29T17:14:28.776Z,34.84
2022-07-29T17:17:02.170Z,35.81
2022-07-29T17:19:34.371Z,34.31
2022-07-29T17:22:12.597Z,35.13
2022-07-29T17:24:45.422Z,35.58
2022-07-29T17:27:14.222Z,35.66
2022-07-29T17:29:44.050Z,35.17
2022-07-29T17:32:13.027Z,36.78
2022-07-29T17:34:42.749Z,35.82
2022-07-29T17:37:12.867Z,36.07
2022-07-29T17:39:43.357Z,36.13
2022-07-29T17:42:13.242Z,36.89
2022-07-29T17:44:44.112Z,36.38
2022-07-29T17:47:15.854Z,36.60
2022-07-29T17:49:45.805Z,37.04
2022-07-29T17:52:14.728Z,37.48
2022-07-29T17:54:44.309Z,39.79
2022-07-29T17:57:12.670Z,39.23
2022-07-29T17:59:43.376Z,39.43
2022-07-29T18:02:14.585Z,39.20
2022-07-29T18:04:43.263Z,39.31
2022-07-29T18:07:11.833Z,39.65
2022-07-29T18:09:40.732Z,39.89
2022-07-29T18:12:11.731Z,40.95
2022-07-29T18:14:40.313Z,41.92
2022-07-29T18:17:10.700Z,40.93
2022-07-29T18:19:42.504Z,41.04
2022-07-29T18:22:13.238Z,40.97
2022-07-29T18:24:41.946Z,40.72
2022-07-29T18:27:10.771Z,41.38
2022-07-29T18:29:40.609Z,41.87
2022-07-29T18:32:09.249Z,42.75
2022-07-29T18:34:39.277Z,44.14
2022-07-29T18:37:09.528Z,44.50
2022-07-29T18:39:38.326Z,45.54
2022-07-29T18:42:09.126Z,46.75
2022-07-29T18:44:43.586Z,45.98
2022-07-29T18:47:13.821Z,46.08
2022-07-29T18:49:45.028Z,46.90
2022-07-29T18:52:16.434Z,47.33
